createdAt,value
2023-08-29T00:01:38.053Z,17.60
2023-08-29T00:04:05.556Z,17.60
2023-08-29T00:06:32.861Z,17.60
2023-08-29T00:09:00.130Z,17.50
2023-08-29T00:11:29.318Z,17.50
2023-08-29T00:13:57.462Z,17.50
2023-08-29T00:16:24.731Z,17.50
2023-08-29T00:18:51.982Z,17.40
2023-08-29T00:21:19.272Z,17.40
2023-08-29T00:23:47.697Z,17.40
2023-08-29T00:26:14.789Z,17.40
2023-08-29T00:28:43.338Z,17.30
2023-08-29T00:31:11.862Z,17.30
2023-08-29T00:33:39.902Z,17.30
2023-08-29T00:36:07.208Z,17.30
2023-08-29T00:38:34.688Z,17.30
2023-08-29T00:41:01.968Z,17.30
2023-08-29T00:43:30.662Z,17.20
2023-08-29T00:45:59.284Z,17.20
2023-08-29T00:48:26.756Z,17.20
2023-08-29T00:50:55.866Z,17.20
2023-08-29T00:53:23.928Z,17.20
2023-08-29T00:55:51.194Z,17.20
2023-08-29T00:58:18.839Z,17.10
2023-08-29T01:00:47.045Z,17.10
2023-08-29T01:03:14.221Z,17.10
2023-08-29T01:05:41.844Z,17.10
2023-08-29T01:08:09.052Z,17.10
2023-08-29T01:10:52.559Z,17.00
2023-08-29T01:13:37.833Z,17.00
2023-08-29T01:16:06.536Z,17.00
2023-08-29T01:18:34.695Z,17.00
2023-08-29T01:21:21.013Z,17.00
2023-08-29T01:23:55.442Z,17.00
2023-08-29T01:26:23.754Z,17.00
2023-08-29T01:28:51.617Z,17.00
2023-08-29T01:31:20.376Z,17.00
2023-08-29T01:33:48.622Z,17.00
2023-08-29T01:36:15.821Z,16.90
2023-08-29T01:38:43.051Z,16.90
2023-08-29T01:41:10.170Z,16.90
2023-08-29T01:43:38.517Z,16.90
2023-08-29T01:46:05.822Z,16.90
2023-08-29T01:48:33.432Z,16.90
2023-08-29T01:51:00.671Z,16.90
2023-08-29T01:53:28.007Z,16.90
2023-08-29T01:55:55.514Z,16.90
2023-08-29T01:58:22.796Z,16.90
2023-08-29T02:00:50.470Z,16.90
2023-08-29T02:03:17.679Z,16.90
2023-08-29T02:05:46.503Z,16.90
2023-08-29T02:08:13.964Z,16.90
2023-08-29T02:10:41.221Z,16.90
2023-08-29T02:13:08.390Z,16.90
2023-08-29T02:15:35.876Z,16.80
2023-08-29T02:18:04.384Z,16.80
2023-08-29T02:20:31.895Z,16.80
2023-08-29T02:22:59.061Z,16.70
2023-08-29T02:25:26.372Z,16.70
2023-08-29T02:27:55.436Z,16.70
2023-08-29T02:30:26.194Z,16.70
2023-08-29T02:32:55.414Z,16.60
2023-08-29T02:35:22.631Z,16.60
2023-08-29T02:37:50.450Z,16.60
2023-08-29T02:40:17.641Z,16.60
2023-08-29T02:42:45.187Z,16.60
2023-08-29T02:45:12.700Z,16.60
2023-08-29T02:47:40.008Z,16.60
2023-08-29T02:50:08.035Z,16.60
2023-08-29T02:52:36.993Z,16.60
2023-08-29T02:55:04.966Z,16.60
2023-08-29T02:57:32.282Z,16.50
2023-08-29T02:59:59.441Z,16.50
2023-08-29T03:02:26.591Z,16.50
2023-08-29T03:04:55.013Z,16.50
2023-08-29T03:07:22.366Z,16.40
2023-08-29T03:09:49.613Z,16.30
2023-08-29T03:12:17.833Z,16.30
2023-08-29T03:14:45.217Z,16.30
2023-08-29T03:17:12.972Z,16.20
2023-08-29T03:19:40.193Z,16.20
2023-08-29T03:22:07.435Z,16.10
2023-08-29T03:24:34.712Z,16.10
2023-08-29T03:27:02.016Z,16.00
2023-08-29T03:29:29.326Z,15.90
2023-08-29T03:31:56.648Z,15.90
2023-08-29T03:34:23.825Z,15.80
2023-08-29T03:36:52.464Z,15.70
2023-08-29T03:39:19.630Z,15.60
2023-08-29T03:41:46.898Z,15.60
2023-08-29T03:44:14.319Z,15.50
2023-08-29T03:46:41.588Z,15.40
2023-08-29T03:49:08.789Z,15.40
2023-08-29T03:51:35.996Z,15.30
2023-08-29T03:54:03.298Z,15.20
2023-08-29T03:56:32.461Z,15.20
2023-08-29T03:59:01.872Z,15.10
2023-08-29T04:01:30.611Z,15.10
2023-08-29T04:03:58.801Z,15.10
2023-08-29T04:06:27.366Z,15.00
2023-08-29T04:08:55.949Z,15.00
2023-08-29T04:11:24.623Z,15.00
2023-08-29T04:13:52.229Z,15.00
2023-08-29T04:16:19.448Z,15.00
2023-08-29T04:18:46.848Z,15.00
2023-08-29T04:21:14.402Z,15.00
2023-08-29T04:23:41.758Z,15.00
2023-08-29T04:26:09.564Z,15.10
2023-08-29T04:28:36.882Z,15.10
2023-08-29T04:31:11.156Z,15.20
2023-08-29T04:33:38.614Z,15.20
2023-08-29T04:36:06.056Z,15.30
2023-08-29T04:38:33.277Z,15.40
2023-08-29T04:41:00.517Z,15.40
2023-08-29T04:43:27.931Z,15.50
2023-08-29T04:45:55.230Z,15.60
2023-08-29T04:48:23.127Z,15.60
2023-08-29T04:50:50.365Z,15.60
2023-08-29T04:53:17.759Z,15.70
2023-08-29T04:55:44.987Z,15.80
2023-08-29T04:58:12.778Z,15.80
2023-08-29T05:00:40.981Z,15.90
2023-08-29T05:03:08.436Z,15.90
2023-08-29T05:05:35.803Z,15.90
2023-08-29T05:08:05.611Z,16.00
2023-08-29T05:10:33.125Z,16.00
2023-08-29T05:13:00.366Z,16.00
2023-08-29T05:15:27.612Z,16.00
2023-08-29T05:17:55.002Z,16.10
2023-08-29T05:20:23.164Z,16.10
2023-08-29T05:22:50.582Z,16.10
2023-08-29T05:25:17.732Z,16.10
2023-08-29T05:27:44.959Z,16.10
2023-08-29T05:30:12.281Z,16.10
2023-08-29T05:32:39.818Z,16.10
2023-08-29T05:35:08.334Z,16.10
2023-08-29T05:37:35.717Z,16.00
2023-08-29T05:40:05.079Z,16.00
2023-08-29T05:42:32.251Z,15.90
2023-08-29T05:44:59.490Z,15.90
2023-08-29T05:47:26.685Z,15.80
2023-08-29T05:49:53.940Z,15.80
2023-08-29T05:52:21.214Z,15.80
2023-08-29T05:54:48.457Z,15.80
2023-08-29T05:57:16.698Z,15.80
2023-08-29T05:59:43.923Z,15.80
2023-08-29T06:02:11.118Z,15.90
2023-08-29T06:04:38.937Z,15.90
2023-08-29T06:07:06.606Z,15.90
2023-08-29T06:09:36.515Z,16.00
2023-08-29T06:12:04.127Z,16.10
2023-08-29T06:14:31.962Z,16.10
2023-08-29T06:16:59.304Z,16.10
2023-08-29T06:19:26.922Z,16.20
2023-08-29T06:21:54.062Z,16.30
2023-08-29T06:24:21.287Z,16.40
2023-08-29T06:26:48.476Z,16.40
2023-08-29T06:29:15.636Z,16.50
2023-08-29T06:31:42.974Z,16.60
2023-08-29T06:34:10.211Z,16.60
2023-08-29T06:36:37.570Z,16.70
2023-08-29T06:39:06.290Z,16.80
2023-08-29T06:41:33.718Z,16.80
2023-08-29T06:44:01.031Z,16.90
2023-08-29T06:46:28.318Z,17.00
2023-08-29T06:48:55.739Z,17.10
2023-08-29T06:51:23.037Z,17.20
2023-08-29T06:53:50.239Z,17.20
2023-08-29T06:56:17.513Z,17.30
2023-08-29T06:58:44.858Z,17.40
2023-08-29T07:01:12.208Z,17.50
2023-08-29T07:03:39.462Z,17.60
2023-08-29T07:06:08.000Z,17.70
2023-08-29T07:08:35.218Z,17.70
2023-08-29T07:11:02.417Z,17.90
2023-08-29T07:13:29.645Z,18.00
2023-08-29T07:15:56.858Z,18.00
2023-08-29T07:18:24.254Z,18.20
2023-08-29T07:20:51.558Z,18.20
2023-08-29T07:23:18.862Z,18.30
2023-08-29T07:25:47.142Z,18.40
2023-08-29T07:28:14.910Z,18.50
2023-08-29T07:30:43.377Z,18.50
2023-08-29T07:33:12.160Z,18.60
2023-08-29T07:35:40.220Z,18.70
2023-08-29T07:38:08.096Z,18.80
2023-08-29T07:40:35.590Z,18.80
2023-08-29T07:43:04.967Z,18.90
2023-08-29T07:45:32.448Z,19.00
2023-08-29T07:48:00.281Z,19.00
2023-08-29T07:50:27.957Z,19.10
2023-08-29T07:52:55.402Z,19.20
2023-08-29T07:55:22.669Z,19.20
2023-08-29T07:57:50.189Z,19.30
2023-08-29T08:00:18.054Z,19.30
2023-08-29T08:02:45.793Z,19.40
2023-08-29T08:05:14.607Z,19.40
2023-08-29T08:07:42.555Z,19.50
2023-08-29T08:10:10.236Z,19.50
2023-08-29T08:12:39.039Z,19.50
2023-08-29T08:15:07.025Z,19.50
2023-08-29T08:17:34.184Z,19.60
2023-08-29T08:20:01.668Z,19.60
2023-08-29T08:22:28.813Z,19.60
2023-08-29T08:24:56.007Z,19.60
2023-08-29T08:27:23.562Z,19.60
2023-08-29T08:29:50.708Z,19.70
2023-08-29T08:32:17.766Z,19.80
2023-08-29T08:34:44.850Z,19.80
2023-08-29T08:37:11.981Z,19.90
2023-08-29T08:39:39.210Z,19.90
2023-08-29T08:42:06.774Z,20.00
2023-08-29T08:44:34.179Z,20.00
2023-08-29T08:47:01.693Z,20.10
2023-08-29T08:49:28.976Z,20.20
2023-08-29T08:51:57.852Z,20.20
2023-08-29T08:54:26.203Z,20.30
2023-08-29T08:56:58.820Z,20.30
2023-08-29T08:59:26.317Z,20.40
2023-08-29T09:01:56.571Z,20.50
2023-08-29T09:04:27.178Z,20.60
2023-08-29T09:06:54.404Z,20.60
2023-08-29T09:09:24.678Z,20.70
2023-08-29T09:11:52.908Z,20.80
2023-08-29T09:14:20.494Z,20.90
2023-08-29T09:16:47.773Z,20.90
2023-08-29T09:19:18.199Z,21.00
2023-08-29T09:21:46.143Z,21.00
2023-08-29T09:24:14.065Z,21.10
2023-08-29T09:26:44.573Z,21.10
2023-08-29T09:32:23.301Z,21.20
2023-08-29T09:34:57.927Z,21.20
2023-08-29T09:37:25.443Z,21.30
2023-08-29T09:39:55.365Z,21.30
2023-08-29T09:42:23.905Z,21.30
2023-08-29T09:44:51.717Z,21.40
2023-08-29T09:47:26.719Z,21.50
2023-08-29T09:49:54.128Z,21.50
2023-08-29T09:52:24.219Z,21.60
2023-08-29T09:54:54.039Z,21.70
2023-08-29T09:57:24.522Z,21.70
2023-08-29T09:59:58.476Z,21.70
2023-08-29T10:02:30.291Z,21.80
2023-08-29T10:05:10.138Z,21.80
2023-08-29T10:07:43.558Z,21.90
2023-08-29T10:10:11.918Z,22.00
2023-08-29T10:12:40.570Z,22.00
2023-08-29T10:15:09.531Z,22.00
2023-08-29T10:17:38.048Z,22.10
2023-08-29T10:20:10.447Z,22.10
2023-08-29T10:22:43.301Z,22.20
2023-08-29T12:44:17.367Z,19.40
2023-08-29T12:46:44.813Z,21.10
2023-08-29T12:49:21.084Z,21.30
2023-08-29T12:51:48.468Z,21.50
2023-08-29T12:54:15.862Z,21.70
2023-08-29T14:25:30.262Z,20.40
2023-08-29T14:27:58.617Z,21.10
2023-08-29T14:30:25.828Z,21.20
2023-08-29T14:32:53.659Z,21.40
2023-08-29T14:35:21.426Z,21.40
2023-08-29T14:37:51.027Z,21.50
2023-08-29T14:40:18.224Z,21.60
2023-08-29T14:42:45.430Z,21.60
2023-08-29T14:45:12.678Z,21.70
2023-08-29T14:47:43.348Z,21.70
2023-08-29T14:50:10.972Z,21.80
2023-08-29T14:52:38.876Z,21.80
2023-08-29T14:55:06.512Z,21.80
2023-08-29T14:57:35.178Z,21.90
2023-08-29T15:00:02.445Z,21.90
2023-08-29T15:02:29.773Z,22.00
2023-08-29T15:04:56.981Z,22.00
2023-08-29T15:07:24.813Z,22.10
2023-08-29T15:09:51.978Z,22.10
2023-08-29T15:12:22.745Z,22.20
2023-08-29T15:14:50.088Z,22.20
2023-08-29T15:17:17.290Z,22.30
2023-08-29T15:19:44.629Z,22.30
2023-08-29T15:22:11.963Z,22.30
2023-08-29T15:24:39.199Z,22.40
2023-08-29T15:27:07.442Z,22.50
2023-08-29T15:29:34.718Z,22.60
2023-08-29T15:32:01.881Z,22.70
2023-08-29T15:34:30.378Z,22.70
2023-08-29T15:36:59.493Z,22.80
2023-08-29T15:39:26.784Z,22.80
2023-08-29T15:41:53.961Z,22.90
2023-08-29T15:44:21.175Z,22.90
2023-08-29T15:46:49.846Z,22.90
2023-08-29T15:49:17.184Z,22.90
2023-08-29T15:51:44.381Z,22.90
2023-08-29T15:54:11.547Z,22.80
2023-08-29T15:56:38.817Z,22.80
2023-08-29T15:59:06.096Z,22.80
2023-08-29T16:01:34.434Z,22.80
2023-08-29T16:04:01.905Z,22.70
2023-08-29T16:06:29.356Z,22.70
2023-08-29T16:08:59.047Z,22.70
2023-08-29T16:11:27.810Z,22.60
2023-08-29T16:13:55.043Z,22.60
2023-08-29T16:16:22.278Z,22.50
2023-08-29T16:18:49.529Z,22.50
2023-08-29T16:21:17.918Z,22.40
2023-08-29T16:23:46.712Z,22.30
2023-08-29T16:26:18.105Z,22.30
2023-08-29T16:28:45.685Z,22.20
2023-08-29T16:31:12.904Z,22.20
2023-08-29T16:33:40.495Z,22.10
2023-08-29T16:36:07.682Z,22.00
2023-08-29T16:38:34.943Z,22.00
2023-08-29T16:41:02.133Z,21.90
2023-08-29T16:43:29.786Z,21.90
2023-08-29T16:45:57.151Z,21.80
2023-08-29T16:48:24.440Z,21.80
2023-08-29T16:50:51.914Z,21.70
2023-08-29T16:53:20.694Z,21.70
2023-08-29T16:55:49.363Z,21.60
2023-08-29T16:58:16.674Z,21.60
2023-08-29T17:00:43.987Z,21.50
2023-08-29T17:03:12.175Z,21.50
2023-08-29T17:05:39.679Z,21.40
2023-08-29T17:08:08.207Z,21.40
2023-08-29T17:10:35.799Z,21.30
2023-08-29T17:13:03.067Z,21.30
2023-08-29T17:15:30.275Z,21.30
2023-08-29T17:17:57.588Z,21.30
2023-08-29T17:20:24.796Z,21.20
2023-08-29T17:22:52.048Z,21.20
2023-08-29T17:25:19.667Z,21.20
2023-08-29T17:27:46.897Z,21.10
2023-08-29T17:30:14.592Z,21.10
2023-08-29T17:32:43.644Z,21.10
2023-08-29T17:35:11.017Z,21.00
2023-08-29T17:37:39.840Z,21.00
2023-08-29T17:40:09.078Z,20.90
2023-08-29T17:42:36.459Z,20.90
2023-08-29T17:45:05.695Z,20.90
2023-08-29T17:47:35.922Z,20.90
2023-08-29T17:50:04.298Z,20.80
2023-08-29T17:52:31.604Z,20.80
2023-08-29T17:54:59.220Z,20.80
2023-08-29T17:57:26.630Z,20.80
2023-08-29T17:59:57.074Z,20.70
2023-08-29T18:02:24.621Z,20.70
2023-08-29T18:04:53.338Z,20.70
2023-08-29T18:07:21.771Z,20.60
2023-08-29T18:10:07.708Z,20.60
2023-08-29T18:12:35.184Z,20.60
2023-08-29T18:15:02.755Z,20.50
2023-08-29T18:17:29.957Z,20.50
2023-08-29T18:19:57.762Z,20.50
2023-08-29T18:22:25.658Z,20.40
2023-08-29T18:24:53.183Z,20.40
2023-08-29T18:27:21.592Z,20.30
2023-08-29T18:29:48.911Z,20.30
2023-08-29T18:32:16.161Z,20.30
2023-08-29T18:34:46.608Z,20.20
2023-08-29T18:37:14.896Z,20.20
2023-08-29T18:39:42.081Z,20.20
2023-08-29T18:42:09.418Z,20.10
2023-08-29T18:44:39.853Z,20.10
2023-08-29T18:47:07.149Z,20.10
2023-08-29T18:49:36.742Z,20.10
2023-08-29T18:52:04.635Z,20.10
2023-08-29T18:54:35.198Z,20.00
2023-08-29T18:57:02.495Z,20.00
2023-08-29T18:59:29.719Z,20.00
2023-08-29T19:01:59.149Z,20.00
2023-08-29T19:04:26.531Z,20.00
2023-08-29T19:06:53.669Z,20.00
2023-08-29T19:09:20.993Z,20.00
2023-08-29T19:11:48.212Z,20.00
2023-08-29T19:14:15.395Z,20.00
2023-08-29T19:16:42.647Z,20.00
2023-08-29T19:19:13.071Z,20.00
2023-08-29T19:21:41.549Z,20.00
2023-08-29T19:24:09.054Z,20.00
2023-08-29T19:26:36.714Z,20.00
2023-08-29T19:29:04.641Z,20.00
2023-08-29T19:31:31.918Z,20.00
2023-08-29T19:33:59.143Z,20.00
2023-08-29T19:36:26.810Z,20.00
2023-08-29T19:39:02.077Z,20.00
2023-08-29T19:41:36.879Z,20.00
2023-08-29T19:44:05.175Z,20.00
2023-08-29T19:46:33.160Z,20.00
2023-08-29T19:49:00.370Z,20.00
2023-08-29T19:51:27.588Z,19.90
2023-08-29T19:53:54.836Z,19.90
2023-08-29T19:56:26.273Z,19.90
2023-08-29T19:58:53.714Z,19.90
2023-08-29T20:01:20.774Z,19.90
2023-08-29T20:03:47.928Z,19.90
2023-08-29T20:06:15.420Z,19.80
2023-08-29T20:08:42.739Z,19.80
2023-08-29T20:11:09.845Z,19.80
2023-08-29T20:13:37.022Z,19.80
2023-08-29T20:16:06.973Z,19.80
2023-08-29T20:18:34.108Z,19.70
2023-08-29T20:21:02.233Z,19.70
2023-08-29T20:23:29.383Z,19.70
2023-08-29T20:25:56.908Z,19.70
2023-08-29T20:28:24.191Z,19.70
2023-08-29T20:30:54.784Z,19.60
2023-08-29T20:33:24.713Z,19.60
2023-08-29T20:35:51.865Z,19.60
2023-08-29T20:38:19.072Z,19.50
2023-08-29T20:40:46.258Z,19.50
2023-08-29T20:43:13.482Z,19.50
2023-08-29T20:45:41.604Z,19.40
2023-08-29T20:48:09.238Z,19.40
2023-08-29T20:50:36.810Z,19.40
2023-08-29T20:53:04.124Z,19.40
2023-08-29T20:55:31.322Z,19.30
2023-08-29T20:58:00.603Z,19.30
2023-08-29T21:00:27.859Z,19.30
2023-08-29T21:02:56.508Z,19.20
2023-08-29T21:05:23.688Z,19.20
2023-08-29T21:07:51.061Z,19.20
2023-08-29T21:10:18.274Z,19.20
2023-08-29T21:12:45.531Z,19.10
2023-08-29T21:15:12.732Z,19.10
2023-08-29T21:17:40.077Z,19.10
2023-08-29T21:20:08.957Z,19.10
2023-08-29T21:22:36.122Z,19.00
2023-08-29T21:25:03.723Z,19.00
2023-08-29T21:27:31.054Z,19.00
2023-08-29T21:29:58.392Z,18.90
2023-08-29T21:32:25.565Z,18.90
2023-08-29T21:34:52.828Z,18.90
2023-08-29T21:37:20.025Z,18.90
2023-08-29T21:39:47.331Z,18.80
2023-08-29T21:42:14.607Z,18.80
2023-08-29T21:44:41.746Z,18.80
2023-08-29T21:47:08.944Z,18.80
2023-08-29T21:49:36.201Z,18.70
2023-08-29T21:52:03.887Z,18.70
2023-08-29T21:54:31.406Z,18.70
2023-08-29T21:56:58.677Z,18.70
2023-08-29T21:59:26.071Z,18.60
2023-08-29T22:01:53.342Z,18.60
2023-08-29T22:04:20.693Z,18.60
2023-08-29T22:06:48.019Z,18.60
2023-08-29T22:09:15.324Z,18.60
2023-08-29T22:11:42.501Z,18.60
2023-08-29T22:14:10.356Z,18.50
2023-08-29T22:16:37.644Z,18.50
2023-08-29T22:19:04.944Z,18.50
2023-08-29T22:21:32.194Z,18.50
2023-08-29T22:23:59.438Z,18.40
2023-08-29T22:26:26.695Z,18.40
2023-08-29T22:28:53.945Z,18.40
2023-08-29T22:31:21.233Z,18.40
2023-08-29T22:33:48.417Z,18.40
2023-08-29T22:36:15.671Z,18.40
2023-08-29T22:38:43.008Z,18.30
2023-08-29T22:41:21.365Z,18.30
2023-08-29T22:43:56.240Z,18.30
2023-08-29T22:46:23.487Z,18.30
2023-08-29T22:48:50.705Z,18.30
2023-08-29T22:51:17.892Z,18.30
2023-08-29T22:53:47.279Z,18.30
2023-08-29T22:56:14.522Z,18.30
2023-08-29T22:58:41.850Z,18.30
2023-08-29T23:01:09.209Z,18.30
2023-08-29T23:03:36.586Z,18.30
2023-08-29T23:06:03.928Z,18.30
2023-08-29T23:08:31.271Z,18.20
2023-08-29T23:10:58.480Z,18.20
2023-08-29T23:13:25.854Z,18.20
2023-08-29T23:15:53.038Z,18.20
2023-08-29T23:18:20.653Z,18.20
2023-08-29T23:20:47.872Z,18.20
2023-08-29T23:23:15.128Z,18.10
2023-08-29T23:25:42.370Z,18.10
2023-08-29T23:28:10.650Z,18.10
2023-08-29T23:30:39.491Z,18.10
2023-08-29T23:33:06.720Z,18.00
2023-08-29T23:35:33.998Z,18.00
2023-08-29T23:38:01.279Z,18.00
2023-08-29T23:40:28.552Z,17.90
2023-08-29T23:42:55.746Z,17.90
2023-08-29T23:45:22.950Z,17.90
2023-08-29T23:47:50.319Z,17.90
2023-08-29T23:50:17.610Z,17.90
2023-08-29T23:52:44.866Z,17.80
2023-08-29T23:55:12.085Z,17.90
2023-08-29T23:57:39.404Z,17.80
